Time;durP1;ratioP1;P1;durP2;ratioP2;P2;SDS_P1;SDS_P2;PMS_P1;PMS_P2;Temp;Humidity;BMP_temperature;BMP_pressure;BME280_temperature;BME280_humidity;BME280_pressure;Samples;Min_cycle;Max_cycle;Signal;HPM_P1;HPM_P2
2023/05/07 00:00:21;;;;;;;16.13;12.77;;;9.10;99.90;;;;;;5022513;28;20652;-48
2023/05/07 00:02:47;;;;;;;21.33;13.37;;;9.10;99.90;;;;;;5022388;28;20207;-49
2023/05/07 00:05:13;;;;;;;21.40;14.37;;;9.10;99.90;;;;;;5021596;28;20674;-48
2023/05/07 00:07:38;;;;;;;17.10;12.77;;;9.10;99.90;;;;;;5021373;28;20195;-48
2023/05/07 00:10:06;;;;;;;19.50;13.60;;;9.00;99.90;;;;;;5019962;28;20691;-48
2023/05/07 00:12:33;;;;;;;17.80;12.97;;;9.00;1.00;;;;;;5019277;28;20683;-49
2023/05/07 00:15:00;;;;;;;25.20;14.77;;;9.00;1.00;;;;;;5025107;28;20439;-48
2023/05/07 00:17:25;;;;;;;19.50;14.03;;;9.00;1.00;;;;;;5022339;28;20443;-48
2023/05/07 00:19:51;;;;;;;20.03;14.07;;;8.90;99.90;;;;;;5018651;28;20443;-48
2023/05/07 00:22:17;;;;;;;20.73;14.60;;;9.00;1.00;;;;;;5021589;28;20188;-49
2023/05/07 00:24:42;;;;;;;21.77;14.23;;;9.00;1.00;;;;;;5018155;28;20231;-49
2023/05/07 00:27:08;;;;;;;20.60;13.80;;;9.00;1.00;;;;;;5025358;28;20670;-48
2023/05/07 00:29:34;;;;;;;23.30;14.17;;;9.00;1.00;;;;;;5021434;28;20310;-48
2023/05/07 00:31:59;;;;;;;20.03;13.97;;;9.00;1.00;;;;;;5018916;28;20274;-48
2023/05/07 00:34:25;;;;;;;19.97;14.47;;;9.00;1.00;;;;;;5024308;28;20334;-48
2023/05/07 00:36:50;;;;;;;18.43;13.20;;;9.00;1.00;;;;;;5020958;28;20207;-48
2023/05/07 00:39:16;;;;;;;21.20;14.80;;;9.00;1.00;;;;;;5022877;28;20187;-48
2023/05/07 00:41:42;;;;;;;22.67;14.73;;;9.00;1.00;;;;;;5020640;28;20670;-50
2023/05/07 00:44:07;;;;;;;21.90;15.03;;;9.00;1.00;;;;;;5020889;28;20196;-48
2023/05/07 00:46:33;;;;;;;19.00;13.57;;;9.00;1.00;;;;;;5023720;28;20184;-49
2023/05/07 00:48:59;;;;;;;23.33;15.57;;;9.00;1.00;;;;;;5021516;28;20636;-48
2023/05/07 00:51:27;;;;;;;20.40;14.47;;;9.00;1.00;;;;;;5023169;28;20223;-49
2023/05/07 00:53:53;;;;;;;18.57;13.73;;;9.00;1.00;;;;;;5021259;28;20541;-48
2023/05/07 00:56:21;;;;;;;17.53;12.97;;;9.10;1.00;;;;;;5021884;28;20483;-48
2023/05/07 00:58:47;;;;;;;18.50;13.70;;;9.10;99.90;;;;;;5024397;28;20443;-48
2023/05/07 01:01:12;;;;;;;21.30;15.13;;;9.10;99.90;;;;;;5018852;28;20457;-48
2023/05/07 01:03:38;;;;;;;20.80;14.20;;;9.00;99.90;;;;;;5019057;28;20645;-49
2023/05/07 01:06:06;;;;;;;19.40;12.87;;;9.00;99.90;;;;;;5019087;28;20207;-48
2023/05/07 01:08:32;;;;;;;20.50;13.63;;;9.00;99.90;;;;;;5020396;28;20247;-49
2023/05/07 01:10:59;;;;;;;20.17;13.90;;;9.00;99.90;;;;;;5017155;28;20990;-48
2023/05/07 01:13:25;;;;;;;18.33;13.67;;;9.00;99.90;;;;;;5022040;28;20451;-48
2023/05/07 01:15:51;;;;;;;17.20;13.07;;;9.10;99.90;;;;;;5018483;28;20439;-48
2023/05/07 01:18:16;;;;;;;17.80;14.07;;;9.10;99.90;;;;;;5018574;28;21041;-48
2023/05/07 01:20:42;;;;;;;19.37;13.43;;;9.10;99.90;;;;;;5018038;28;20188;-48
2023/05/07 01:23:10;;;;;;;18.57;14.10;;;9.10;99.90;;;;;;5018901;28;20245;-48
2023/05/07 01:25:35;;;;;;;18.93;13.97;;;9.10;99.90;;;;;;5017519;28;20528;-48
2023/05/07 01:28:02;;;;;;;18.40;13.10;;;9.10;99.90;;;;;;5018271;28;20471;-48
2023/05/07 01:30:28;;;;;;;17.70;12.60;;;9.10;99.90;;;;;;5026828;28;20223;-48
2023/05/07 01:33:03;;;;;;;18.00;12.83;;;9.10;99.90;;;;;;5020252;28;20497;-49
2023/05/07 01:35:34;;;;;;;18.20;12.40;;;9.10;99.90;;;;;;5020383;28;20430;-49
2023/05/07 01:38:00;;;;;;;15.97;12.07;;;9.10;99.90;;;;;;5025555;28;20426;-49
2023/05/07 01:40:27;;;;;;;17.13;11.73;;;9.10;99.90;;;;;;5022977;28;20973;-48
2023/05/07 01:42:54;;;;;;;15.80;11.47;;;9.10;99.90;;;;;;5016555;28;20447;-48
2023/05/07 01:45:20;;;;;;;16.90;12.10;;;9.10;1.00;;;;;;5020437;28;20439;-48
2023/05/07 01:47:46;;;;;;;14.40;11.00;;;9.20;1.00;;;;;;5016776;28;20944;-50
2023/05/07 01:50:12;;;;;;;15.27;12.03;;;9.10;1.00;;;;;;5018689;28;20489;-50
2023/05/07 01:52:38;;;;;;;16.30;12.50;;;9.10;1.00;;;;;;5021622;28;20809;-48
2023/05/07 01:55:05;;;;;;;15.60;11.87;;;9.20;1.00;;;;;;5017739;28;20873;-49
2023/05/07 01:57:30;;;;;;;14.10;11.47;;;9.10;1.00;;;;;;5024548;28;20434;-48
2023/05/07 01:59:56;;;;;;;15.47;11.83;;;9.10;1.00;;;;;;5018983;28;20911;-49
2023/05/07 02:02:21;;;;;;;16.50;11.90;;;9.10;1.00;;;;;;5022210;28;20601;-49
2023/05/07 02:04:47;;;;;;;17.27;11.80;;;9.10;1.00;;;;;;5017824;28;20199;-48
2023/05/07 02:07:12;;;;;;;17.13;12.10;;;9.10;1.00;;;;;;5019691;28;20730;-48
2023/05/07 02:09:38;;;;;;;15.10;11.47;;;9.10;1.00;;;;;;5023462;28;20307;-49
2023/05/07 02:12:04;;;;;;;15.47;11.50;;;9.10;1.00;;;;;;5016894;28;20210;-48
2023/05/07 02:14:29;;;;;;;14.60;11.23;;;9.10;1.00;;;;;;5020827;28;20192;-50
2023/05/07 02:16:55;;;;;;;16.33;11.80;;;9.00;1.00;;;;;;5018211;28;20807;-49
2023/05/07 02:19:21;;;;;;;15.53;12.07;;;9.10;1.00;;;;;;5018464;28;20216;-49
2023/05/07 02:21:47;;;;;;;16.33;12.20;;;9.10;1.00;;;;;;5016361;28;20195;-49
2023/05/07 02:24:13;;;;;;;15.30;12.10;;;9.10;1.00;;;;;;5017117;28;20188;-48
2023/05/07 02:26:40;;;;;;;16.10;11.83;;;9.10;1.00;;;;;;5018486;28;20435;-48
2023/05/07 02:29:06;;;;;;;17.07;12.83;;;9.10;1.00;;;;;;5018897;28;20442;-49
2023/05/07 02:31:33;;;;;;;18.17;11.97;;;9.10;1.00;;;;;;5019451;28;20647;-49
2023/05/07 02:33:59;;;;;;;16.10;11.93;;;9.10;1.00;;;;;;5017238;28;20193;-49
2023/05/07 02:36:26;;;;;;;15.20;11.40;;;9.10;1.00;;;;;;5017780;28;20554;-49
2023/05/07 02:38:52;;;;;;;15.40;11.10;;;9.10;1.00;;;;;;5021910;28;20541;-50
2023/05/07 02:41:18;;;;;;;14.30;10.80;;;9.10;1.00;;;;;;5020527;28;20529;-50
2023/05/07 02:43:43;;;;;;;15.23;10.80;;;9.10;1.00;;;;;;5016628;28;20198;-49
2023/05/07 02:46:09;;;;;;;15.83;10.80;;;9.10;1.00;;;;;;5020594;28;20188;-50
2023/05/07 02:48:35;;;;;;;14.40;10.23;;;9.10;1.00;;;;;;5023605;28;20199;-48
2023/05/07 02:51:01;;;;;;;15.60;11.17;;;9.10;1.00;;;;;;5019236;28;20843;-49
2023/05/07 02:53:27;;;;;;;15.57;10.93;;;9.00;1.00;;;;;;5016304;28;20641;-48
2023/05/07 02:55:56;;;;;;;14.57;10.90;;;9.00;1.00;;;;;;5017479;28;20459;-49
2023/05/07 02:58:22;;;;;;;15.90;11.27;;;9.00;28.70;;;;;;5019800;28;20544;-49
2023/05/07 03:00:47;;;;;;;15.50;10.80;;;9.00;13.20;;;;;;5017458;28;20434;-49
2023/05/07 03:03:14;;;;;;;16.63;9.77;;;9.00;99.90;;;;;;5019744;28;20628;-49
2023/05/07 03:05:39;;;;;;;15.60;10.53;;;9.00;99.90;;;;;;5017448;28;20190;-49
2023/05/07 03:08:05;;;;;;;14.97;10.47;;;9.00;99.90;;;;;;5016279;28;20528;-49
2023/05/07 03:10:31;;;;;;;14.40;9.90;;;9.00;99.90;;;;;;5021078;28;20282;-49
2023/05/07 03:12:56;;;;;;;13.73;10.30;;;9.00;99.90;;;;;;5025155;28;20742;-51
2023/05/07 03:15:22;;;;;;;15.20;10.33;;;9.00;99.90;;;;;;5025202;28;20185;-49
2023/05/07 03:17:48;;;;;;;15.50;10.90;;;9.00;83.30;;;;;;5020611;28;20188;-49
2023/05/07 03:20:14;;;;;;;16.60;11.50;;;8.90;99.90;;;;;;5027696;28;20207;-49
2023/05/07 03:22:39;;;;;;;19.40;11.20;;;9.00;99.90;;;;;;5021436;28;20435;-49
2023/05/07 03:25:06;;;;;;;19.53;11.73;;;8.90;99.90;;;;;;5022774;28;20194;-50
2023/05/07 03:27:31;;;;;;;19.50;12.33;;;8.90;99.90;;;;;;5023157;28;20237;-49
2023/05/07 03:29:57;;;;;;;19.83;12.90;;;8.90;99.90;;;;;;5022578;28;20479;-50
2023/05/07 03:32:22;;;;;;;16.00;11.80;;;8.90;99.90;;;;;;5021411;28;20192;-49
2023/05/07 03:34:48;;;;;;;18.00;12.70;;;8.90;99.90;;;;;;5019687;28;20246;-49
2023/05/07 03:37:14;;;;;;;19.90;13.00;;;8.90;99.90;;;;;;5024959;28;20196;-49
2023/05/07 03:39:39;;;;;;;18.07;12.50;;;8.90;1.00;;;;;;5023206;28;20271;-49
2023/05/07 03:42:05;;;;;;;21.30;12.90;;;8.90;99.90;;;;;;5022784;28;20271;-49
2023/05/07 03:44:31;;;;;;;18.43;13.40;;;8.80;1.00;;;;;;5019497;28;20872;-49
2023/05/07 03:46:56;;;;;;;19.93;12.77;;;8.90;1.00;;;;;;5020374;28;20267;-49
2023/05/07 03:49:22;;;;;;;17.23;12.23;;;9.00;99.90;;;;;;5018630;28;20234;-49
2023/05/07 03:51:47;;;;;;;15.10;11.10;;;8.90;99.90;;;;;;5019255;28;20191;-50
2023/05/07 03:54:13;;;;;;;17.57;12.37;;;9.00;99.90;;;;;;5021641;28;20184;-49
2023/05/07 03:56:38;;;;;;;21.27;12.07;;;9.00;99.90;;;;;;5026060;28;20202;-49
2023/05/07 03:59:04;;;;;;;15.93;12.33;;;9.00;99.90;;;;;;5024440;28;20180;-49
2023/05/07 04:01:30;;;;;;;15.77;12.40;;;9.00;99.90;;;;;;5019725;28;20327;-49
2023/05/07 04:03:55;;;;;;;17.73;12.80;;;9.10;1.00;;;;;;5021466;28;20651;-49
2023/05/07 04:06:21;;;;;;;17.50;13.20;;;9.00;1.00;;;;;;5018821;28;20187;-48
2023/05/07 04:08:46;;;;;;;17.97;12.63;;;9.00;1.00;;;;;;5021493;28;20190;-49
2023/05/07 04:11:12;;;;;;;20.60;11.53;;;9.00;1.00;;;;;;5022175;28;20220;-50
2023/05/07 04:13:38;;;;;;;16.67;11.87;;;9.10;1.00;;;;;;5019318;28;20184;-49
2023/05/07 04:16:04;;;;;;;15.00;11.20;;;9.10;99.90;;;;;;5020621;28;20300;-49
2023/05/07 04:18:30;;;;;;;14.13;10.77;;;9.10;99.90;;;;;;5030103;28;20549;-49
2023/05/07 04:20:56;;;;;;;15.70;11.17;;;9.10;99.90;;;;;;5021712;28;20442;-49
2023/05/07 04:23:21;;;;;;;17.67;12.47;;;9.10;99.90;;;;;;5017955;28;20180;-49
2023/05/07 04:25:47;;;;;;;19.30;12.83;;;9.10;99.90;;;;;;5025117;28;20226;-49
2023/05/07 04:28:12;;;;;;;16.77;12.13;;;9.10;99.90;;;;;;5019522;28;20565;-49
2023/05/07 04:30:38;;;;;;;16.33;11.67;;;9.20;99.90;;;;;;5024590;28;20269;-49
2023/05/07 04:33:05;;;;;;;15.73;11.60;;;9.10;99.90;;;;;;5021576;28;20212;-49
2023/05/07 04:35:31;;;;;;;17.33;11.97;;;9.10;99.90;;;;;;5022004;28;20456;-49
2023/05/07 04:37:56;;;;;;;17.63;12.00;;;9.20;99.90;;;;;;5021710;28;20434;-49
2023/05/07 04:40:22;;;;;;;17.33;12.43;;;9.30;99.90;;;;;;5023508;28;20214;-49
2023/05/07 04:42:47;;;;;;;17.67;12.20;;;9.30;99.90;;;;;;5021229;28;20241;-49
2023/05/07 04:45:13;;;;;;;16.30;11.43;;;9.30;99.90;;;;;;5025770;28;20547;-49
2023/05/07 04:47:39;;;;;;;16.93;11.53;;;9.30;99.90;;;;;;5018615;28;20191;-50
2023/05/07 04:50:06;;;;;;;16.80;12.23;;;9.30;99.90;;;;;;5019380;28;20236;-49
2023/05/07 04:52:32;;;;;;;17.53;11.87;;;9.30;99.90;;;;;;5017874;28;20267;-49
2023/05/07 04:55:00;;;;;;;14.67;11.40;;;9.30;99.90;;;;;;5024316;28;20870;-50
2023/05/07 04:57:26;;;;;;;15.03;10.00;;;9.30;99.90;;;;;;5021458;28;20196;-49
2023/05/07 04:59:52;;;;;;;14.40;10.80;;;9.40;99.90;;;;;;5017297;28;20957;-49
2023/05/07 05:02:17;;;;;;;13.63;9.80;;;9.40;99.90;;;;;;5018297;28;20457;-49
2023/05/07 05:04:43;;;;;;;14.17;11.00;;;9.40;99.90;;;;;;5024411;28;20183;-49
2023/05/07 05:07:08;;;;;;;14.30;10.80;;;9.40;99.90;;;;;;5018854;28;20234;-49
2023/05/07 05:09:34;;;;;;;13.00;10.03;;;9.40;99.90;;;;;;5022215;28;20254;-49
2023/05/07 05:12:00;;;;;;;16.60;10.33;;;9.40;99.90;;;;;;5018930;28;20250;-50
2023/05/07 05:14:25;;;;;;;14.50;10.70;;;9.40;99.90;;;;;;5022005;28;20279;-49
2023/05/07 05:16:51;;;;;;;16.03;10.90;;;9.50;99.90;;;;;;5019643;28;20438;-49
2023/05/07 05:19:17;;;;;;;14.37;10.50;;;9.50;99.90;;;;;;5020350;28;20184;-49
2023/05/07 05:21:42;;;;;;;12.93;10.60;;;9.50;99.90;;;;;;5022054;28;20223;-49
2023/05/07 05:24:08;;;;;;;16.23;9.80;;;9.50;99.90;;;;;;5020453;28;20218;-50
2023/05/07 05:26:34;;;;;;;14.20;10.77;;;9.50;99.90;;;;;;5022931;28;20185;-49
2023/05/07 05:29:00;;;;;;;15.40;11.30;;;9.50;99.90;;;;;;5018400;28;20601;-49
2023/05/07 05:31:25;;;;;;;12.40;10.07;;;9.50;99.90;;;;;;5023529;28;20535;-49
2023/05/07 05:33:51;;;;;;;15.60;10.40;;;9.50;99.90;;;;;;5017349;28;20211;-49
2023/05/07 05:36:17;;;;;;;13.73;10.23;;;9.50;99.90;;;;;;5026183;28;20191;-49
2023/05/07 05:38:43;;;;;;;14.20;10.27;;;9.50;99.90;;;;;;5020131;28;20202;-49
2023/05/07 05:41:09;;;;;;;16.53;11.17;;;9.50;99.90;;;;;;5018013;28;20270;-49
2023/05/07 05:43:35;;;;;;;16.60;10.87;;;9.60;99.90;;;;;;5017428;28;20910;-49
2023/05/07 05:46:00;;;;;;;15.37;11.00;;;9.60;99.90;;;;;;5020601;28;20183;-49
2023/05/07 05:48:26;;;;;;;17.00;11.43;;;9.60;99.90;;;;;;5023260;28;20266;-49
2023/05/07 05:50:51;;;;;;;16.10;10.67;;;9.60;99.90;;;;;;5021002;28;20231;-50
2023/05/07 05:53:17;;;;;;;14.00;10.87;;;9.50;99.90;;;;;;5024922;28;20183;-49
2023/05/07 05:55:43;;;;;;;16.10;10.67;;;9.50;99.90;;;;;;5018952;28;20192;-49
2023/05/07 05:58:09;;;;;;;16.73;10.70;;;9.50;99.90;;;;;;5019713;28;20196;-49
2023/05/07 06:00:34;;;;;;;16.90;10.60;;;9.60;99.90;;;;;;5024449;28;20469;-49
2023/05/07 06:03:00;;;;;;;14.07;10.73;;;9.50;99.90;;;;;;5018179;28;20520;-50
2023/05/07 06:05:26;;;;;;;14.67;10.83;;;9.60;99.90;;;;;;5018068;28;20210;-49
2023/05/07 06:07:51;;;;;;;14.30;10.70;;;9.60;99.90;;;;;;5019977;28;20249;-50
2023/05/07 06:10:17;;;;;;;14.80;10.53;;;9.60;99.90;;;;;;5023120;28;20222;-48
2023/05/07 06:12:43;;;;;;;13.33;10.73;;;9.60;99.90;;;;;;5019917;28;20188;-49
2023/05/07 06:15:09;;;;;;;17.83;11.03;;;9.60;99.90;;;;;;5019333;28;20188;-49
2023/05/07 06:17:35;;;;;;;12.00;10.10;;;9.60;99.90;;;;;;5017821;28;20469;-48
2023/05/07 06:20:00;;;;;;;17.80;11.10;;;9.60;99.90;;;;;;5022414;28;20929;-48
2023/05/07 06:22:26;;;;;;;14.60;10.63;;;9.70;99.90;;;;;;5018877;28;20257;-48
2023/05/07 06:24:51;;;;;;;15.70;11.43;;;9.70;99.90;;;;;;5020645;28;20213;-51
2023/05/07 06:27:17;;;;;;;15.90;11.87;;;9.70;99.90;;;;;;5016916;28;20193;-48
2023/05/07 06:29:42;;;;;;;15.57;11.27;;;9.70;99.90;;;;;;5019215;28;20226;-49
2023/05/07 06:32:10;;;;;;;14.80;11.17;;;9.70;99.90;;;;;;5020255;28;20188;-48
2023/05/07 06:34:36;;;;;;;15.27;10.77;;;9.70;99.90;;;;;;5019275;28;20612;-49
2023/05/07 06:37:02;;;;;;;14.83;10.70;;;9.80;99.90;;;;;;5026378;28;20460;-48
2023/05/07 06:39:27;;;;;;;14.80;11.43;;;9.80;96.90;;;;;;5018872;28;20966;-48
2023/05/07 06:41:53;;;;;;;16.13;11.20;;;9.90;87.40;;;;;;5017606;28;20945;-49
2023/05/07 06:44:19;;;;;;;17.27;11.30;;;9.90;96.20;;;;;;5018419;28;20227;-49
2023/05/07 06:46:45;;;;;;;16.23;10.90;;;9.90;92.20;;;;;;5016193;28;20233;-50
2023/05/07 06:49:12;;;;;;;14.17;11.33;;;10.00;85.20;;;;;;5018718;28;20203;-49
2023/05/07 06:51:37;;;;;;;15.20;10.90;;;10.00;89.40;;;;;;5023495;28;20786;-49
2023/05/07 06:54:04;;;;;;;13.17;10.07;;;10.00;78.30;;;;;;5018960;28;20501;-48
2023/05/07 06:56:30;;;;;;;14.87;10.30;;;10.10;95.30;;;;;;5019800;28;20624;-49
2023/05/07 06:58:56;;;;;;;16.00;11.03;;;10.20;95.70;;;;;;5019522;28;20446;-49
2023/05/07 07:01:22;;;;;;;18.90;11.23;;;10.20;56.10;;;;;;5024384;28;21011;-48
2023/05/07 07:03:47;;;;;;;13.90;10.50;;;10.20;46.30;;;;;;5016949;28;20227;-49
2023/05/07 07:06:13;;;;;;;14.37;10.70;;;10.30;31.20;;;;;;5016447;28;20192;-49
2023/05/07 07:08:39;;;;;;;15.10;10.37;;;10.30;47.00;;;;;;5019405;28;20551;-48
2023/05/07 07:11:05;;;;;;;15.27;10.37;;;10.30;14.70;;;;;;5025599;28;20218;-49
2023/05/07 07:13:31;;;;;;;13.30;10.10;;;10.50;11.10;;;;;;5018841;28;20200;-48
2023/05/07 07:15:56;;;;;;;12.63;9.60;;;10.50;1.00;;;;;;5023096;28;20443;-49
2023/05/07 07:18:22;;;;;;;12.50;9.67;;;10.50;1.00;;;;;;5022761;28;20198;-49
2023/05/07 07:20:48;;;;;;;13.93;9.53;;;10.50;1.00;;;;;;5022494;28;20520;-49
2023/05/07 07:23:14;;;;;;;12.97;8.60;;;10.60;1.00;;;;;;5021946;28;20214;-49
2023/05/07 07:25:39;;;;;;;13.33;9.07;;;10.50;1.00;;;;;;5022454;28;20540;-49
2023/05/07 07:28:05;;;;;;;13.17;9.73;;;10.60;1.00;;;;;;5016943;28;20453;-49
2023/05/07 07:30:31;;;;;;;12.87;9.80;;;10.60;1.00;;;;;;5015141;28;20695;-48
2023/05/07 07:33:02;;;;;;;12.10;9.63;;;10.60;1.00;;;;;;5017330;28;20492;-49
2023/05/07 07:35:28;;;;;;;13.93;9.40;;;10.70;1.00;;;;;;5018239;28;20196;-49
2023/05/07 07:37:54;;;;;;;11.97;9.00;;;10.80;1.00;;;;;;5018215;28;20517;-49
2023/05/07 07:40:19;;;;;;;11.50;8.70;;;10.80;1.00;;;;;;5019403;28;21045;-51
2023/05/07 07:42:45;;;;;;;10.50;8.80;;;10.90;1.00;;;;;;5019060;28;20188;-49
2023/05/07 07:45:11;;;;;;;11.63;9.33;;;11.00;1.00;;;;;;5023807;28;20188;-50
2023/05/07 07:47:37;;;;;;;11.37;8.87;;;11.00;1.00;;;;;;5023994;28;20195;-49
2023/05/07 07:50:02;;;;;;;11.87;8.27;;;10.90;1.00;;;;;;5017001;28;20980;-49
2023/05/07 07:52:28;;;;;;;11.10;8.07;;;11.00;1.00;;;;;;5015856;28;20192;-47
2023/05/07 07:54:53;;;;;;;11.17;8.83;;;11.00;1.00;;;;;;5019084;28;20184;-49
2023/05/07 07:57:19;;;;;;;10.70;8.00;;;11.10;1.00;;;;;;5021686;28;20187;-50
2023/05/07 07:59:45;;;;;;;9.60;7.87;;;11.20;1.00;;;;;;5022603;28;20219;-51
2023/05/07 08:02:10;;;;;;;10.27;7.80;;;11.20;1.00;;;;;;5020944;28;20196;-50
2023/05/07 08:04:37;;;;;;;12.57;8.33;;;11.20;1.00;;;;;;5022862;28;20257;-50
2023/05/07 08:07:03;;;;;;;11.10;8.20;;;11.30;1.00;;;;;;5021827;28;20211;-50
2023/05/07 08:09:28;;;;;;;12.53;7.80;;;11.40;1.00;;;;;;5022191;28;20504;-50
2023/05/07 08:11:54;;;;;;;14.87;8.87;;;11.30;1.00;;;;;;5020047;28;20286;-50
2023/05/07 08:14:19;;;;;;;10.10;7.80;;;11.30;1.00;;;;;;5021801;28;20188;-49
2023/05/07 08:16:45;;;;;;;9.50;8.00;;;11.20;1.00;;;;;;5019473;28;20231;-49
2023/05/07 08:19:11;;;;;;;12.23;8.20;;;11.30;1.00;;;;;;5020379;28;20229;-50
2023/05/07 08:21:39;;;;;;;8.80;7.60;;;11.30;1.00;;;;;;5022745;28;20250;-49
2023/05/07 08:24:05;;;;;;;9.33;7.77;;;11.20;1.00;;;;;;5021604;28;20282;-49
2023/05/07 08:26:31;;;;;;;9.50;8.10;;;11.20;1.00;;;;;;5020239;28;20633;-50
2023/05/07 08:28:56;;;;;;;11.43;7.80;;;11.30;1.00;;;;;;5031872;28;20187;-50
2023/05/07 08:31:22;;;;;;;9.47;7.77;;;11.30;1.00;;;;;;5022711;28;20223;-50
2023/05/07 08:33:47;;;;;;;9.97;8.33;;;11.40;1.00;;;;;;5025950;28;20179;-49
2023/05/07 08:36:13;;;;;;;11.63;8.50;;;11.50;1.00;;;;;;5020252;28;20194;-49
2023/05/07 08:38:40;;;;;;;12.80;7.73;;;11.60;1.00;;;;;;5025053;28;20202;-50
2023/05/07 08:41:07;;;;;;;11.27;8.27;;;11.60;1.00;;;;;;5018926;28;20188;-49
2023/05/07 08:43:35;;;;;;;11.07;8.40;;;11.60;1.00;;;;;;5019337;28;20776;-50
2023/05/07 08:46:02;;;;;;;9.90;8.10;;;11.60;1.00;;;;;;5024782;28;20447;-49
2023/05/07 08:48:30;;;;;;;9.00;7.47;;;11.70;1.00;;;;;;5022923;28;20846;-49
2023/05/07 08:50:58;;;;;;;10.40;7.90;;;11.70;1.00;;;;;;5017306;28;20486;-50
2023/05/07 08:53:24;;;;;;;10.67;8.07;;;11.50;1.00;;;;;;5020901;28;20434;-49
2023/05/07 08:55:50;;;;;;;9.63;8.07;;;11.50;1.00;;;;;;5021601;28;20771;-49
2023/05/07 08:58:15;;;;;;;10.50;9.10;;;11.50;1.00;;;;;;5018291;28;20199;-50
2023/05/07 09:00:42;;;;;;;13.50;8.87;;;11.50;1.00;;;;;;5022586;28;20223;-50
2023/05/07 09:03:07;;;;;;;12.13;9.97;;;11.50;1.00;;;;;;5028702;28;20208;-49
2023/05/07 09:05:33;;;;;;;9.93;8.53;;;11.50;1.00;;;;;;5022563;28;20431;-50
2023/05/07 09:07:59;;;;;;;10.17;9.10;;;11.50;1.00;;;;;;5021402;28;20640;-49
2023/05/07 09:10:26;;;;;;;11.50;9.20;;;11.50;1.00;;;;;;5019532;28;20243;-49
2023/05/07 09:12:51;;;;;;;10.50;8.70;;;11.50;1.00;;;;;;5022369;28;20439;-50
2023/05/07 09:15:19;;;;;;;12.63;8.50;;;11.60;1.00;;;;;;5020820;28;20503;-50
2023/05/07 09:17:44;;;;;;;10.60;8.60;;;11.70;1.00;;;;;;5024512;28;20572;-51
2023/05/07 09:20:10;;;;;;;12.13;8.77;;;11.80;1.00;;;;;;5022139;28;20446;-50
2023/05/07 09:22:39;;;;;;;12.93;9.43;;;11.90;1.00;;;;;;5022678;28;20191;-49
2023/05/07 09:25:07;;;;;;;10.37;8.70;;;12.00;1.00;;;;;;5020930;28;20185;-50
2023/05/07 09:27:32;;;;;;;12.00;8.80;;;12.10;1.00;;;;;;5023235;28;20442;-49
2023/05/07 09:29:58;;;;;;;13.13;8.30;;;12.20;1.00;;;;;;5021911;28;21018;-49
2023/05/07 09:32:25;;;;;;;10.73;7.87;;;12.30;1.00;;;;;;5020460;28;20198;-48
2023/05/07 09:34:51;;;;;;;11.67;8.47;;;12.50;1.00;;;;;;5022822;28;20191;-49
2023/05/07 09:37:17;;;;;;;14.40;8.20;;;12.70;1.00;;;;;;5028247;28;20445;-49
2023/05/07 09:39:47;;;;;;;11.03;8.20;;;12.70;1.00;;;;;;5018697;28;20195;-48
2023/05/07 09:42:14;;;;;;;8.77;7.20;;;12.80;1.00;;;;;;5019937;28;20450;-49
2023/05/07 09:44:41;;;;;;;9.30;7.23;;;12.80;1.00;;;;;;5022681;28;20521;-48
2023/05/07 09:47:07;;;;;;;8.40;7.07;;;12.80;1.00;;;;;;5026563;28;20783;-49
2023/05/07 09:49:39;;;;;;;9.57;7.20;;;12.90;1.00;;;;;;5027519;28;20480;-49
2023/05/07 09:52:08;;;;;;;8.73;7.70;;;13.00;1.00;;;;;;5036316;28;20470;-49
2023/05/07 09:54:35;;;;;;;8.60;7.70;;;13.10;1.00;;;;;;5022220;28;20195;-49
2023/05/07 09:57:02;;;;;;;12.53;7.80;;;13.10;1.00;;;;;;5026223;28;20423;-49
2023/05/07 09:59:31;;;;;;;8.73;7.50;;;13.20;1.00;;;;;;5023190;28;21004;-48
2023/05/07 10:01:58;;;;;;;8.47;7.67;;;13.10;1.00;;;;;;5032433;28;20648;-48
2023/05/07 10:04:26;;;;;;;8.60;6.97;;;13.10;1.00;;;;;;5033081;28;20533;-48
2023/05/07 10:06:53;;;;;;;9.00;7.47;;;13.10;1.00;;;;;;5048322;28;20482;-49
2023/05/07 10:09:20;;;;;;;7.30;6.60;;;13.10;1.00;;;;;;5031182;28;20540;-48
2023/05/07 10:11:48;;;;;;;8.27;7.40;;;13.20;1.00;;;;;;5029667;28;20478;-49
2023/05/07 10:14:14;;;;;;;8.80;6.77;;;13.20;1.00;;;;;;5032604;28;20819;-48
2023/05/07 10:16:40;;;;;;;10.70;7.60;;;13.10;1.00;;;;;;5033482;28;20434;-49
2023/05/07 10:19:09;;;;;;;8.00;6.93;;;13.10;1.00;;;;;;5035221;28;20493;-48
2023/05/07 10:21:36;;;;;;;10.27;8.03;;;13.10;1.00;;;;;;5028028;28;20438;-49
2023/05/07 10:24:13;;;;;;;10.00;7.70;;;13.10;1.00;;;;;;5026835;28;20441;-49
2023/05/07 10:26:45;;;;;;;7.90;7.00;;;13.00;1.00;;;;;;5029806;28;20434;-49
2023/05/07 10:29:36;;;;;;;14.00;8.17;;;13.10;1.00;;;;;;5029164;28;20461;-48
2023/05/07 10:32:05;;;;;;;8.10;7.30;;;13.10;1.00;;;;;;5032286;28;20564;-49
2023/05/07 10:34:36;;;;;;;8.63;7.50;;;13.20;1.00;;;;;;5032291;28;20536;-49
2023/05/07 10:37:02;;;;;;;9.63;7.53;;;13.20;1.00;;;;;;5030535;28;20515;-48
2023/05/07 10:39:28;;;;;;;10.17;7.57;;;13.20;1.00;;;;;;5033992;28;20976;-48
2023/05/07 10:41:54;;;;;;;8.40;7.07;;;13.10;1.00;;;;;;5033844;28;20410;-48
2023/05/07 10:44:29;;;;;;;9.53;8.20;;;13.00;1.00;;;;;;5047689;28;20188;-48
2023/05/07 10:47:09;;;;;;;8.60;7.70;;;13.00;1.00;;;;;;5036649;28;20656;-48
2023/05/07 10:49:55;;;;;;;8.30;7.37;;;12.90;1.00;;;;;;5026713;28;20534;-48
2023/05/07 10:52:24;;;;;;;8.30;7.20;;;13.00;1.00;;;;;;5032427;28;20449;-48
2023/05/07 10:55:27;;;;;;;8.23;6.80;;;13.00;1.00;;;;;;5028987;28;20995;-49
2023/05/07 10:57:53;;;;;;;9.30;7.20;;;13.10;1.00;;;;;;5028866;28;20433;-48
2023/05/07 11:00:25;;;;;;;9.47;6.63;;;13.10;1.00;;;;;;5035919;28;20952;-48
2023/05/07 11:02:59;;;;;;;11.40;6.80;;;13.10;1.00;;;;;;5032856;28;20248;-48
2023/05/07 11:05:26;;;;;;;7.60;6.80;;;13.30;1.00;;;;;;5033642;28;20891;-48
2023/05/07 11:08:00;;;;;;;7.17;6.47;;;13.50;1.00;;;;;;5040136;28;20779;-49
2023/05/07 11:10:49;;;;;;;10.23;7.33;;;13.60;1.00;;;;;;5029857;28;20556;-49
2023/05/07 11:13:16;;;;;;;7.30;6.27;;;13.70;1.00;;;;;;5029966;28;20804;-50
2023/05/07 11:15:46;;;;;;;7.10;6.40;;;13.60;1.00;;;;;;5029580;28;20438;-48
2023/05/07 11:18:13;;;;;;;7.20;6.50;;;13.80;1.00;;;;;;5030961;28;20438;-49
2023/05/07 11:21:00;;;;;;;7.57;6.30;;;14.00;1.00;;;;;;5029762;28;20585;-49
2023/05/07 11:23:35;;;;;;;6.50;5.90;;;13.90;1.00;;;;;;5027405;28;20934;-50
2023/05/07 11:26:09;;;;;;;6.43;5.83;;;14.00;1.00;;;;;;5046450;28;20972;-49
2023/05/07 11:28:42;;;;;;;7.20;6.50;;;14.10;1.00;;;;;;5026984;28;20450;-49
2023/05/07 11:31:09;;;;;;;8.73;7.03;;;14.40;1.00;;;;;;5030099;28;20573;-49
2023/05/07 11:33:35;;;;;;;8.40;6.83;;;14.60;1.00;;;;;;5031494;28;20530;-49
2023/05/07 11:36:03;;;;;;;9.80;5.90;;;14.70;1.00;;;;;;5034724;28;20524;-49
2023/05/07 11:38:30;;;;;;;10.50;6.43;;;14.80;1.00;;;;;;5040466;28;20457;-49
2023/05/07 11:41:00;;;;;;;7.63;5.90;;;14.80;1.00;;;;;;5035475;28;20507;-50
2023/05/07 11:43:26;;;;;;;10.30;7.50;;;15.10;1.00;;;;;;5035872;28;20919;-50
2023/05/07 11:45:52;;;;;;;8.80;7.27;;;15.40;1.00;;;;;;5034006;28;20451;-50
2023/05/07 11:48:18;;;;;;;9.20;6.90;;;15.80;1.00;;;;;;5032263;28;21831;-52
2023/05/07 11:51:11;;;;;;;7.20;6.30;;;16.50;1.00;;;;;;5035680;28;20492;-50
2023/05/07 11:53:40;;;;;;;7.13;6.10;;;16.90;1.00;;;;;;5032045;28;20212;-50
2023/05/07 11:56:09;;;;;;;6.67;5.97;;;17.10;1.00;;;;;;5046981;28;20536;-49
2023/05/07 11:58:36;;;;;;;8.80;6.20;;;16.80;1.00;;;;;;5042728;28;20452;-50
2023/05/07 12:01:01;;;;;;;5.50;5.00;;;16.50;1.00;;;;;;5046678;28;20452;-50
2023/05/07 12:03:27;;;;;;;6.10;5.60;;;16.50;1.00;;;;;;5036840;28;20439;-50
2023/05/07 12:05:53;;;;;;;7.13;6.43;;;16.60;1.00;;;;;;5035705;28;20231;-51
2023/05/07 12:08:20;;;;;;;8.50;6.00;;;16.60;1.00;;;;;;5035286;28;20198;-50
2023/05/07 12:10:48;;;;;;;7.17;5.10;;;16.50;1.00;;;;;;5039215;28;20248;-50
2023/05/07 12:13:22;;;;;;;6.10;5.30;;;16.20;1.00;;;;;;5046167;28;20577;-51
2023/05/07 12:15:52;;;;;;;5.97;5.40;;;16.50;1.00;;;;;;5031008;28;20455;-50
2023/05/07 12:18:18;;;;;;;6.43;5.10;;;16.70;1.00;;;;;;5032076;28;20461;-49
2023/05/07 12:20:45;;;;;;;7.70;4.80;;;16.80;1.00;;;;;;5035299;28;20449;-50
2023/05/07 12:23:11;;;;;;;5.67;5.00;;;16.90;1.00;;;;;;5039340;28;20440;-50
2023/05/07 12:25:38;;;;;;;5.63;4.87;;;17.00;1.00;;;;;;5032304;28;20455;-50
2023/05/07 12:28:07;;;;;;;5.10;4.60;;;16.80;1.00;;;;;;5034333;28;20445;-50
2023/05/07 12:30:37;;;;;;;5.30;3.97;;;16.80;1.00;;;;;;5032303;28;20481;-50
2023/05/07 12:33:03;;;;;;;5.17;4.70;;;17.00;1.00;;;;;;5033204;28;20520;-50
2023/05/07 12:35:32;;;;;;;8.23;4.63;;;16.90;1.00;;;;;;5034385;28;20863;-50
2023/05/07 12:37:59;;;;;;;4.30;3.90;;;17.00;1.00;;;;;;5033665;28;20197;-50
2023/05/07 12:40:36;;;;;;;7.30;4.23;;;17.00;1.00;;;;;;5038416;28;20442;-50
2023/05/07 12:43:01;;;;;;;7.57;5.20;;;17.10;1.00;;;;;;5032862;28;20714;-50